sensor_id;sensor_type;location;lat;lon;timestamp;temperature;humidity
71173;DHT22;58875;51.996;4.504;2022-12-05T00:01:52;4.23;83.97
71173;DHT22;58875;51.996;4.504;2022-12-05T00:04:18;4.24;83.79
71173;DHT22;58875;51.996;4.504;2022-12-05T00:06:44;4.26;83.76
71173;DHT22;58875;51.996;4.504;2022-12-05T00:09:11;4.29;83.63
71173;DHT22;58875;51.996;4.504;2022-12-05T00:11:39;4.23;83.72
71173;DHT22;58875;51.996;4.504;2022-12-05T00:14:06;4.27;83.71
71173;DHT22;58875;51.996;4.504;2022-12-05T00:16:35;4.34;83.55
71173;DHT22;58875;51.996;4.504;2022-12-05T00:19:02;4.34;83.34
71173;DHT22;58875;51.996;4.504;2022-12-05T00:21:31;4.34;83.48
71173;DHT22;58875;51.996;4.504;2022-12-05T00:23:58;4.29;83.48
71173;DHT22;58875;51.996;4.504;2022-12-05T00:26:25;4.33;83.50
71173;DHT22;58875;51.996;4.504;2022-12-05T00:28:52;4.30;83.59
71173;DHT22;58875;51.996;4.504;2022-12-05T00:31:20;4.34;83.50
71173;DHT22;58875;51.996;4.504;2022-12-05T00:33:47;4.36;83.41
71173;DHT22;58875;51.996;4.504;2022-12-05T00:36:19;4.40;83.38
71173;DHT22;58875;51.996;4.504;2022-12-05T00:38:45;4.43;83.28
71173;DHT22;58875;51.996;4.504;2022-12-05T00:41:15;4.50;83.10
71173;DHT22;58875;51.996;4.504;2022-12-05T00:43:40;4.54;82.86
71173;DHT22;58875;51.996;4.504;2022-12-05T00:46:15;4.56;82.94
71173;DHT22;58875;51.996;4.504;2022-12-05T00:48:42;4.64;82.52
71173;DHT22;58875;51.996;4.504;2022-12-05T00:51:11;4.53;82.76
71173;DHT22;58875;51.996;4.504;2022-12-05T00:53:38;4.53;82.87
71173;DHT22;58875;51.996;4.504;2022-12-05T00:56:06;4.56;82.93
71173;DHT22;58875;51.996;4.504;2022-12-05T00:58:33;4.65;82.63
71173;DHT22;58875;51.996;4.504;2022-12-05T01:01:12;4.61;82.62
71173;DHT22;58875;51.996;4.504;2022-12-05T01:03:38;4.62;82.83
71173;DHT22;58875;51.996;4.504;2022-12-05T01:06:04;4.65;82.75
71173;DHT22;58875;51.996;4.504;2022-12-05T01:08:31;4.64;82.85
71173;DHT22;58875;51.996;4.504;2022-12-05T01:10:57;4.61;83.08
71173;DHT22;58875;51.996;4.504;2022-12-05T01:13:25;4.67;83.12
71173;DHT22;58875;51.996;4.504;2022-12-05T01:15:51;4.64;83.25
71173;DHT22;58875;51.996;4.504;2022-12-05T01:18:18;4.68;83.23
71173;DHT22;58875;51.996;4.504;2022-12-05T01:20:44;4.64;83.27
71173;DHT22;58875;51.996;4.504;2022-12-05T01:23:10;4.68;83.38
71173;DHT22;58875;51.996;4.504;2022-12-05T01:25:41;4.68;83.36
71173;DHT22;58875;51.996;4.504;2022-12-05T01:28:07;4.67;83.61
71173;DHT22;58875;51.996;4.504;2022-12-05T01:30:36;4.68;83.65
71173;DHT22;58875;51.996;4.504;2022-12-05T01:33:03;4.67;83.73
71173;DHT22;58875;51.996;4.504;2022-12-05T01:35:31;4.67;83.82
71173;DHT22;58875;51.996;4.504;2022-12-05T01:37:56;4.68;83.97
71173;DHT22;58875;51.996;4.504;2022-12-05T01:40:22;4.67;84.11
71173;DHT22;58875;51.996;4.504;2022-12-05T01:42:48;4.71;84.14
71173;DHT22;58875;51.996;4.504;2022-12-05T01:45:17;4.69;84.24
71173;DHT22;58875;51.996;4.504;2022-12-05T01:47:44;4.75;84.12
71173;DHT22;58875;51.996;4.504;2022-12-05T01:50:11;4.75;84.12
71173;DHT22;58875;51.996;4.504;2022-12-05T01:52:38;4.74;84.29
71173;DHT22;58875;51.996;4.504;2022-12-05T01:55:10;4.72;84.19
71173;DHT22;58875;51.996;4.504;2022-12-05T01:57:37;4.75;84.24
71173;DHT22;58875;51.996;4.504;2022-12-05T02:00:10;4.69;84.33
71173;DHT22;58875;51.996;4.504;2022-12-05T02:02:36;4.71;84.62
71173;DHT22;58875;51.996;4.504;2022-12-05T02:05:14;4.77;84.46
71173;DHT22;58875;51.996;4.504;2022-12-05T02:07:42;4.78;84.30
71173;DHT22;58875;51.996;4.504;2022-12-05T02:10:09;4.87;84.23
71173;DHT22;58875;51.996;4.504;2022-12-05T02:12:35;4.84;84.18
71173;DHT22;58875;51.996;4.504;2022-12-05T02:23:54;4.78;84.80
71173;DHT22;58875;51.996;4.504;2022-12-05T02:26:45;4.85;84.90
71173;DHT22;58875;51.996;4.504;2022-12-05T02:32:22;4.88;84.81
71173;DHT22;58875;51.996;4.504;2022-12-05T02:37:53;4.91;85.01
71173;DHT22;58875;51.996;4.504;2022-12-05T02:46:28;5.08;84.61
71173;DHT22;58875;51.996;4.504;2022-12-05T02:48:59;5.02;84.51
71173;DHT22;58875;51.996;4.504;2022-12-05T02:51:32;4.91;85.08
71173;DHT22;58875;51.996;4.504;2022-12-05T02:54:03;4.92;85.21
71173;DHT22;58875;51.996;4.504;2022-12-05T02:56:32;4.92;85.23
71173;DHT22;58875;51.996;4.504;2022-12-05T02:59:00;4.91;85.32
71173;DHT22;58875;51.996;4.504;2022-12-05T03:01:30;4.95;85.36
71173;DHT22;58875;51.996;4.504;2022-12-05T03:03:59;4.93;85.42
71173;DHT22;58875;51.996;4.504;2022-12-05T03:11:27;4.85;85.88
71173;DHT22;58875;51.996;4.504;2022-12-05T03:14:01;4.89;85.74
71173;DHT22;58875;51.996;4.504;2022-12-05T03:16:38;4.87;85.88
71173;DHT22;58875;51.996;4.504;2022-12-05T03:19:15;4.95;85.81
71173;DHT22;58875;51.996;4.504;2022-12-05T03:21:51;4.95;85.64
71173;DHT22;58875;51.996;4.504;2022-12-05T03:24:18;5.00;85.67
71173;DHT22;58875;51.996;4.504;2022-12-05T03:27:06;4.99;85.72
71173;DHT22;58875;51.996;4.504;2022-12-05T03:46:49;4.93;86.53
71173;DHT22;58875;51.996;4.504;2022-12-05T03:48:55;4.89;86.61
71173;DHT22;58875;51.996;4.504;2022-12-05T03:51:32;4.96;86.79
71173;DHT22;58875;51.996;4.504;2022-12-05T03:54:07;4.92;86.67
71173;DHT22;58875;51.996;4.504;2022-12-05T03:56:46;4.96;86.71
71173;DHT22;58875;51.996;4.504;2022-12-05T04:01:59;5.04;86.46
71173;DHT22;58875;51.996;4.504;2022-12-05T04:04:36;5.04;86.41
71173;DHT22;58875;51.996;4.504;2022-12-05T04:07:05;5.07;86.30
71173;DHT22;58875;51.996;4.504;2022-12-05T04:09:51;5.07;86.40
71173;DHT22;58875;51.996;4.504;2022-12-05T04:12:27;5.08;86.49
71173;DHT22;58875;51.996;4.504;2022-12-05T04:15:03;5.08;86.42
71173;DHT22;58875;51.996;4.504;2022-12-05T04:17:47;5.15;86.43
71173;DHT22;58875;51.996;4.504;2022-12-05T04:20:31;5.20;86.34
71173;DHT22;58875;51.996;4.504;2022-12-05T04:23:18;5.25;86.26
71173;DHT22;58875;51.996;4.504;2022-12-05T04:31:05;5.19;86.42
71173;DHT22;58875;51.996;4.504;2022-12-05T04:33:41;5.23;86.42
71173;DHT22;58875;51.996;4.504;2022-12-05T04:38:51;5.25;86.23
71173;DHT22;58875;51.996;4.504;2022-12-05T04:41:40;5.28;86.30
71173;DHT22;58875;51.996;4.504;2022-12-05T04:44:11;5.30;86.27
71173;DHT22;58875;51.996;4.504;2022-12-05T04:46:43;5.28;86.31
71173;DHT22;58875;51.996;4.504;2022-12-05T04:49:18;5.32;85.92
71173;DHT22;58875;51.996;4.504;2022-12-05T04:51:50;5.23;86.14
71173;DHT22;58875;51.996;4.504;2022-12-05T04:54:42;5.30;86.17
71173;DHT22;58875;51.996;4.504;2022-12-05T04:57:23;5.28;86.22
71173;DHT22;58875;51.996;4.504;2022-12-05T04:59:49;5.28;86.22
71173;DHT22;58875;51.996;4.504;2022-12-05T05:02:23;5.33;86.35
71173;DHT22;58875;51.996;4.504;2022-12-05T05:04:55;5.36;86.30
71173;DHT22;58875;51.996;4.504;2022-12-05T05:07:22;5.39;86.18
71173;DHT22;58875;51.996;4.504;2022-12-05T05:09:48;5.38;86.17
71173;DHT22;58875;51.996;4.504;2022-12-05T05:12:14;5.42;85.95
71173;DHT22;58875;51.996;4.504;2022-12-05T05:14:39;5.35;86.08
71173;DHT22;58875;51.996;4.504;2022-12-05T05:17:05;5.36;86.13
71173;DHT22;58875;51.996;4.504;2022-12-05T05:19:31;5.39;86.33
71173;DHT22;58875;51.996;4.504;2022-12-05T05:21:56;5.42;86.19
71173;DHT22;58875;51.996;4.504;2022-12-05T05:24:22;5.46;86.25
71173;DHT22;58875;51.996;4.504;2022-12-05T05:26:48;5.53;86.11
71173;DHT22;58875;51.996;4.504;2022-12-05T05:29:14;5.51;86.06
71173;DHT22;58875;51.996;4.504;2022-12-05T05:31:41;5.53;86.06
71173;DHT22;58875;51.996;4.504;2022-12-05T05:34:08;5.54;85.99
71173;DHT22;58875;51.996;4.504;2022-12-05T05:36:34;5.49;86.16
71173;DHT22;58875;51.996;4.504;2022-12-05T05:39:04;5.54;86.10
71173;DHT22;58875;51.996;4.504;2022-12-05T05:41:33;5.61;85.91
71173;DHT22;58875;51.996;4.504;2022-12-05T05:44:00;5.60;85.93
71173;DHT22;58875;51.996;4.504;2022-12-05T05:46:30;5.66;85.96
71173;DHT22;58875;51.996;4.504;2022-12-05T05:48:56;5.69;85.82
71173;DHT22;58875;51.996;4.504;2022-12-05T05:51:22;5.66;85.84
71173;DHT22;58875;51.996;4.504;2022-12-05T05:53:52;5.64;86.05
71173;DHT22;58875;51.996;4.504;2022-12-05T05:56:19;5.63;86.08
71173;DHT22;58875;51.996;4.504;2022-12-05T05:58:47;5.69;85.85
71173;DHT22;58875;51.996;4.504;2022-12-05T06:01:18;5.66;86.07
71173;DHT22;58875;51.996;4.504;2022-12-05T06:03:46;5.71;85.96
71173;DHT22;58875;51.996;4.504;2022-12-05T06:06:13;5.69;85.95
71173;DHT22;58875;51.996;4.504;2022-12-05T06:08:41;5.69;86.00
71173;DHT22;58875;51.996;4.504;2022-12-05T06:11:10;5.73;86.08
71173;DHT22;58875;51.996;4.504;2022-12-05T06:13:36;5.74;86.17
71173;DHT22;58875;51.996;4.504;2022-12-05T06:16:04;5.78;86.20
71173;DHT22;58875;51.996;4.504;2022-12-05T06:18:30;5.75;86.30
71173;DHT22;58875;51.996;4.504;2022-12-05T06:20:56;5.84;86.16
71173;DHT22;58875;51.996;4.504;2022-12-05T06:23:23;5.88;85.92
71173;DHT22;58875;51.996;4.504;2022-12-05T06:25:51;5.87;86.09
71173;DHT22;58875;51.996;4.504;2022-12-05T06:28:18;5.87;86.16
71173;DHT22;58875;51.996;4.504;2022-12-05T06:30:44;5.88;86.26
71173;DHT22;58875;51.996;4.504;2022-12-05T06:33:10;5.91;86.27
71173;DHT22;58875;51.996;4.504;2022-12-05T06:35:36;6.00;86.11
71173;DHT22;58875;51.996;4.504;2022-12-05T06:38:02;6.02;86.12
71173;DHT22;58875;51.996;4.504;2022-12-05T06:40:28;6.05;85.99
71173;DHT22;58875;51.996;4.504;2022-12-05T06:42:54;6.05;86.05
71173;DHT22;58875;51.996;4.504;2022-12-05T06:45:19;6.07;85.98
71173;DHT22;58875;51.996;4.504;2022-12-05T06:47:45;6.11;85.93
71173;DHT22;58875;51.996;4.504;2022-12-05T06:50:10;6.12;85.94
71173;DHT22;58875;51.996;4.504;2022-12-05T06:52:36;6.07;86.08
71173;DHT22;58875;51.996;4.504;2022-12-05T06:55:01;6.07;86.07
71173;DHT22;58875;51.996;4.504;2022-12-05T06:57:28;6.07;86.22
71173;DHT22;58875;51.996;4.504;2022-12-05T06:59:53;6.07;86.22
71173;DHT22;58875;51.996;4.504;2022-12-05T07:02:37;6.08;86.17
71173;DHT22;58875;51.996;4.504;2022-12-05T07:05:03;6.08;86.22
71173;DHT22;58875;51.996;4.504;2022-12-05T07:07:28;6.11;86.21
71173;DHT22;58875;51.996;4.504;2022-12-05T07:09:54;6.17;86.09
71173;DHT22;58875;51.996;4.504;2022-12-05T07:12:19;6.24;85.83
71173;DHT22;58875;51.996;4.504;2022-12-05T07:14:45;6.25;85.76
71173;DHT22;58875;51.996;4.504;2022-12-05T07:17:12;6.22;85.67
71173;DHT22;58875;51.996;4.504;2022-12-05T07:19:37;6.31;85.72
71173;DHT22;58875;51.996;4.504;2022-12-05T07:22:03;6.26;85.72
71173;DHT22;58875;51.996;4.504;2022-12-05T07:24:29;6.29;85.72
71173;DHT22;58875;51.996;4.504;2022-12-05T07:26:54;6.21;85.66
71173;DHT22;58875;51.996;4.504;2022-12-05T07:29:20;6.26;85.89
71173;DHT22;58875;51.996;4.504;2022-12-05T07:31:45;6.24;85.76
71173;DHT22;58875;51.996;4.504;2022-12-05T07:34:11;6.31;85.67
71173;DHT22;58875;51.996;4.504;2022-12-05T07:36:36;6.31;85.68
71173;DHT22;58875;51.996;4.504;2022-12-05T07:39:02;6.32;85.75
71173;DHT22;58875;51.996;4.504;2022-12-05T07:41:31;6.35;85.50
71173;DHT22;58875;51.996;4.504;2022-12-05T07:43:58;6.35;85.69
71173;DHT22;58875;51.996;4.504;2022-12-05T07:46:26;6.36;85.57
71173;DHT22;58875;51.996;4.504;2022-12-05T07:48:52;6.39;85.43
71173;DHT22;58875;51.996;4.504;2022-12-05T07:51:18;6.39;85.39
71173;DHT22;58875;51.996;4.504;2022-12-05T07:53:45;6.42;85.35
71173;DHT22;58875;51.996;4.504;2022-12-05T07:56:14;6.45;85.30
71173;DHT22;58875;51.996;4.504;2022-12-05T07:58:43;6.46;85.20
71173;DHT22;58875;51.996;4.504;2022-12-05T08:01:12;6.49;85.12
71173;DHT22;58875;51.996;4.504;2022-12-05T08:03:38;6.49;85.22
71173;DHT22;58875;51.996;4.504;2022-12-05T08:06:06;6.48;85.22
71173;DHT22;58875;51.996;4.504;2022-12-05T08:08:32;6.54;85.25
71173;DHT22;58875;51.996;4.504;2022-12-05T08:11:06;6.56;84.97
71173;DHT22;58875;51.996;4.504;2022-12-05T08:13:33;6.49;84.97
71173;DHT22;58875;51.996;4.504;2022-12-05T08:16:26;6.50;85.16
71173;DHT22;58875;51.996;4.504;2022-12-05T08:19:05;6.52;85.00
71173;DHT22;58875;51.996;4.504;2022-12-05T08:21:31;6.54;85.15
71173;DHT22;58875;51.996;4.504;2022-12-05T08:23:58;6.60;85.02
71173;DHT22;58875;51.996;4.504;2022-12-05T08:26:29;6.65;84.69
71173;DHT22;58875;51.996;4.504;2022-12-05T08:29:01;6.63;84.70
71173;DHT22;58875;51.996;4.504;2022-12-05T08:31:29;6.60;84.93
71173;DHT22;58875;51.996;4.504;2022-12-05T08:33:57;6.59;84.86
71173;DHT22;58875;51.996;4.504;2022-12-05T08:36:23;6.57;84.86
71173;DHT22;58875;51.996;4.504;2022-12-05T08:38:48;6.60;84.95
71173;DHT22;58875;51.996;4.504;2022-12-05T08:41:16;6.56;85.04
71173;DHT22;58875;51.996;4.504;2022-12-05T08:43:43;6.59;84.87
71173;DHT22;58875;51.996;4.504;2022-12-05T08:46:09;6.60;84.96
71173;DHT22;58875;51.996;4.504;2022-12-05T08:48:36;6.70;84.70
71173;DHT22;58875;51.996;4.504;2022-12-05T08:51:06;6.65;84.73
71173;DHT22;58875;51.996;4.504;2022-12-05T08:53:33;6.70;84.67
71173;DHT22;58875;51.996;4.504;2022-12-05T08:56:03;6.69;84.62
71173;DHT22;58875;51.996;4.504;2022-12-05T08:58:30;6.72;84.51
71173;DHT22;58875;51.996;4.504;2022-12-05T09:01:14;6.76;84.43
71173;DHT22;58875;51.996;4.504;2022-12-05T09:03:41;6.68;84.61
71173;DHT22;58875;51.996;4.504;2022-12-05T09:06:21;6.72;84.47
71173;DHT22;58875;51.996;4.504;2022-12-05T09:08:50;6.73;84.56
71173;DHT22;58875;51.996;4.504;2022-12-05T09:11:20;6.76;84.44
71173;DHT22;58875;51.996;4.504;2022-12-05T09:13:46;6.80;84.34
71173;DHT22;58875;51.996;4.504;2022-12-05T09:16:21;6.86;84.09
71173;DHT22;58875;51.996;4.504;2022-12-05T09:18:49;6.89;84.17
71173;DHT22;58875;51.996;4.504;2022-12-05T09:21:19;6.91;84.10
71173;DHT22;58875;51.996;4.504;2022-12-05T09:23:46;6.94;83.95
71173;DHT22;58875;51.996;4.504;2022-12-05T09:26:15;6.93;83.97
71173;DHT22;58875;51.996;4.504;2022-12-05T09:28:41;6.87;84.03
71173;DHT22;58875;51.996;4.504;2022-12-05T09:31:14;6.86;84.19
71173;DHT22;58875;51.996;4.504;2022-12-05T09:33:40;6.91;84.15
71173;DHT22;58875;51.996;4.504;2022-12-05T09:36:22;6.91;84.16
71173;DHT22;58875;51.996;4.504;2022-12-05T09:38:48;6.97;83.91
71173;DHT22;58875;51.996;4.504;2022-12-05T09:50:13;7.00;83.81
71173;DHT22;58875;51.996;4.504;2022-12-05T09:52:45;6.97;83.86
71173;DHT22;58875;51.996;4.504;2022-12-05T09:55:18;7.00;84.01
71173;DHT22;58875;51.996;4.504;2022-12-05T09:57:56;7.05;83.84
71173;DHT22;58875;51.996;4.504;2022-12-05T10:00:22;7.10;83.72
71173;DHT22;58875;51.996;4.504;2022-12-05T10:03:18;7.11;83.46
71173;DHT22;58875;51.996;4.504;2022-12-05T10:06:05;7.10;83.53
71173;DHT22;58875;51.996;4.504;2022-12-05T10:11:35;7.11;83.54
71173;DHT22;58875;51.996;4.504;2022-12-05T10:16:48;7.05;83.55
71173;DHT22;58875;51.996;4.504;2022-12-05T10:19:30;7.08;83.59
71173;DHT22;58875;51.996;4.504;2022-12-05T10:22:21;7.10;83.78
71173;DHT22;58875;51.996;4.504;2022-12-05T10:24:59;7.22;83.51
71173;DHT22;58875;51.996;4.504;2022-12-05T10:27:37;7.30;82.94
71173;DHT22;58875;51.996;4.504;2022-12-05T10:30:16;7.22;83.05
71173;DHT22;58875;51.996;4.504;2022-12-05T10:33:02;7.22;83.09
71173;DHT22;58875;51.996;4.504;2022-12-05T10:35:39;7.25;83.26
71173;DHT22;58875;51.996;4.504;2022-12-05T10:40:38;7.28;83.28
71173;DHT22;58875;51.996;4.504;2022-12-05T10:43:06;7.24;83.47
71173;DHT22;58875;51.996;4.504;2022-12-05T10:45:41;7.28;83.62
71173;DHT22;58875;51.996;4.504;2022-12-05T10:48:11;7.38;83.52
71173;DHT22;58875;51.996;4.504;2022-12-05T10:50:39;7.31;83.43
71173;DHT22;58875;51.996;4.504;2022-12-05T10:53:07;7.34;83.48
71173;DHT22;58875;51.996;4.504;2022-12-05T10:55:40;7.25;83.58
71173;DHT22;58875;51.996;4.504;2022-12-05T11:00:35;7.21;83.99
71173;DHT22;58875;51.996;4.504;2022-12-05T11:03:04;7.24;84.15
71173;DHT22;58875;51.996;4.504;2022-12-05T11:05:31;7.20;84.35
71173;DHT22;58875;51.996;4.504;2022-12-05T11:07:59;7.22;84.15
71173;DHT22;58875;51.996;4.504;2022-12-05T11:10:35;7.22;84.16
71173;DHT22;58875;51.996;4.504;2022-12-05T11:13:21;7.25;84.24
71173;DHT22;58875;51.996;4.504;2022-12-05T11:15:48;7.14;84.34
71173;DHT22;58875;51.996;4.504;2022-12-05T11:18:31;7.17;84.50
71173;DHT22;58875;51.996;4.504;2022-12-05T11:21:11;7.24;84.44
71173;DHT22;58875;51.996;4.504;2022-12-05T11:23:37;7.17;84.33
71173;DHT22;58875;51.996;4.504;2022-12-05T11:26:16;7.17;84.62
71173;DHT22;58875;51.996;4.504;2022-12-05T11:28:42;7.22;84.56
71173;DHT22;58875;51.996;4.504;2022-12-05T11:33:37;7.34;84.26
71173;DHT22;58875;51.996;4.504;2022-12-05T11:36:18;7.27;84.18
71173;DHT22;58875;51.996;4.504;2022-12-05T11:38:45;7.28;84.02
71173;DHT22;58875;51.996;4.504;2022-12-05T11:46:46;7.38;83.53
71173;DHT22;58875;51.996;4.504;2022-12-05T11:55:16;7.35;83.35
71173;DHT22;58875;51.996;4.504;2022-12-05T12:06:19;7.41;83.12
71173;DHT22;58875;51.996;4.504;2022-12-05T12:08:50;7.48;83.17
71173;DHT22;58875;51.996;4.504;2022-12-05T12:28:22;7.55;82.96
71173;DHT22;58875;51.996;4.504;2022-12-05T12:33:56;7.66;82.80
71173;DHT22;58875;51.996;4.504;2022-12-05T12:36:43;7.48;82.86
71173;DHT22;58875;51.996;4.504;2022-12-05T12:42:20;7.51;83.10
71173;DHT22;58875;51.996;4.504;2022-12-05T12:50:51;7.71;82.78
71173;DHT22;58875;51.996;4.504;2022-12-05T12:56:42;7.61;82.48
71173;DHT22;58875;51.996;4.504;2022-12-05T12:59:19;7.52;82.66
71173;DHT22;58875;51.996;4.504;2022-12-05T13:07:46;7.54;83.30
71173;DHT22;58875;51.996;4.504;2022-12-05T13:10:25;7.52;83.19
71173;DHT22;58875;51.996;4.504;2022-12-05T13:12:56;7.54;83.43
71173;DHT22;58875;51.996;4.504;2022-12-05T13:15:49;7.58;82.87
71173;DHT22;58875;51.996;4.504;2022-12-05T13:18:18;7.51;83.00
71173;DHT22;58875;51.996;4.504;2022-12-05T13:20:48;7.51;83.04
71173;DHT22;58875;51.996;4.504;2022-12-05T13:23:18;7.51;82.93
71173;DHT22;58875;51.996;4.504;2022-12-05T13:25:46;7.61;82.72
71173;DHT22;58875;51.996;4.504;2022-12-05T13:30:58;7.59;82.66
71173;DHT22;58875;51.996;4.504;2022-12-05T13:33:43;7.63;82.33
71173;DHT22;58875;51.996;4.504;2022-12-05T13:36:20;7.68;82.24
71173;DHT22;58875;51.996;4.504;2022-12-05T13:39:25;7.66;82.31
71173;DHT22;58875;51.996;4.504;2022-12-05T13:42:23;7.72;82.14
71173;DHT22;58875;51.996;4.504;2022-12-05T13:50:26;7.79;82.29
71173;DHT22;58875;51.996;4.504;2022-12-05T13:52:57;7.79;82.20
71173;DHT22;58875;51.996;4.504;2022-12-05T13:55:38;7.83;82.27
71173;DHT22;58875;51.996;4.504;2022-12-05T14:00:41;7.83;81.84
71173;DHT22;58875;51.996;4.504;2022-12-05T14:03:58;7.85;81.97
71173;DHT22;58875;51.996;4.504;2022-12-05T14:09:26;7.81;82.08
71173;DHT22;58875;51.996;4.504;2022-12-05T14:17:22;7.92;82.02
71173;DHT22;58875;51.996;4.504;2022-12-05T14:34:24;7.69;82.13
71173;DHT22;58875;51.996;4.504;2022-12-05T14:37:23;7.69;82.43
71173;DHT22;58875;51.996;4.504;2022-12-05T14:39:53;7.65;82.40
71173;DHT22;58875;51.996;4.504;2022-12-05T14:42:41;7.59;82.27
71173;DHT22;58875;51.996;4.504;2022-12-05T14:48:00;7.65;82.35
71173;DHT22;58875;51.996;4.504;2022-12-05T14:53:41;7.62;82.00
71173;DHT22;58875;51.996;4.504;2022-12-05T14:56:19;7.59;82.21
71173;DHT22;58875;51.996;4.504;2022-12-05T15:04:37;7.61;82.25
71173;DHT22;58875;51.996;4.504;2022-12-05T15:07:12;7.58;82.24
71173;DHT22;58875;51.996;4.504;2022-12-05T15:12:20;7.54;82.44
71173;DHT22;58875;51.996;4.504;2022-12-05T15:18:00;7.58;82.32
71173;DHT22;58875;51.996;4.504;2022-12-05T15:20:45;7.58;82.50
71173;DHT22;58875;51.996;4.504;2022-12-05T15:23:46;7.62;82.49
71173;DHT22;58875;51.996;4.504;2022-12-05T15:26:24;7.59;82.52
71173;DHT22;58875;51.996;4.504;2022-12-05T15:31:44;7.61;82.78
71173;DHT22;58875;51.996;4.504;2022-12-05T15:34:23;7.58;82.78
71173;DHT22;58875;51.996;4.504;2022-12-05T15:37:03;7.63;82.85
71173;DHT22;58875;51.996;4.504;2022-12-05T15:39:58;7.63;82.85
71173;DHT22;58875;51.996;4.504;2022-12-05T15:45:14;7.50;83.14
71173;DHT22;58875;51.996;4.504;2022-12-05T15:47:43;7.56;83.18
71173;DHT22;58875;51.996;4.504;2022-12-05T15:50:13;7.55;83.38
71173;DHT22;58875;51.996;4.504;2022-12-05T15:52:46;7.54;83.41
71173;DHT22;58875;51.996;4.504;2022-12-05T15:58:26;7.48;83.69
71173;DHT22;58875;51.996;4.504;2022-12-05T16:01:01;7.47;83.81
71173;DHT22;58875;51.996;4.504;2022-12-05T16:06:42;7.47;84.08
71173;DHT22;58875;51.996;4.504;2022-12-05T16:09:21;7.47;84.26
71173;DHT22;58875;51.996;4.504;2022-12-05T16:12:01;7.47;84.34
71173;DHT22;58875;51.996;4.504;2022-12-05T16:14:37;7.45;84.31
71173;DHT22;58875;51.996;4.504;2022-12-05T16:17:11;7.40;84.57
71173;DHT22;58875;51.996;4.504;2022-12-05T16:19:38;7.38;84.69
71173;DHT22;58875;51.996;4.504;2022-12-05T16:22:21;7.40;84.71
71173;DHT22;58875;51.996;4.504;2022-12-05T16:25:01;7.41;84.68
71173;DHT22;58875;51.996;4.504;2022-12-05T16:27:35;7.48;84.73
71173;DHT22;58875;51.996;4.504;2022-12-05T16:30:19;7.47;84.66
71173;DHT22;58875;51.996;4.504;2022-12-05T16:32:47;7.42;84.81
71173;DHT22;58875;51.996;4.504;2022-12-05T16:35:39;7.32;84.80
71173;DHT22;58875;51.996;4.504;2022-12-05T16:38:17;7.34;84.99
71173;DHT22;58875;51.996;4.504;2022-12-05T16:48:39;7.30;85.21
71173;DHT22;58875;51.996;4.504;2022-12-05T16:51:19;7.30;85.39
71173;DHT22;58875;51.996;4.504;2022-12-05T16:53:46;7.31;85.35
71173;DHT22;58875;51.996;4.504;2022-12-05T16:58:40;7.36;85.37
71173;DHT22;58875;51.996;4.504;2022-12-05T17:01:15;7.40;85.36
71173;DHT22;58875;51.996;4.504;2022-12-05T17:03:42;7.32;85.36
71173;DHT22;58875;51.996;4.504;2022-12-05T17:06:07;7.28;85.53
71173;DHT22;58875;51.996;4.504;2022-12-05T17:08:33;7.34;85.51
71173;DHT22;58875;51.996;4.504;2022-12-05T17:10:59;7.30;85.48
71173;DHT22;58875;51.996;4.504;2022-12-05T17:13:27;7.31;85.61
71173;DHT22;58875;51.996;4.504;2022-12-05T17:15:52;7.28;85.62
71173;DHT22;58875;51.996;4.504;2022-12-05T17:18:19;7.31;85.62
71173;DHT22;58875;51.996;4.504;2022-12-05T17:20:50;7.30;85.50
71173;DHT22;58875;51.996;4.504;2022-12-05T17:23:17;7.34;85.54
71173;DHT22;58875;51.996;4.504;2022-12-05T17:25:52;7.36;85.29
71173;DHT22;58875;51.996;4.504;2022-12-05T17:28:18;7.34;85.27
71173;DHT22;58875;51.996;4.504;2022-12-05T17:30:44;7.38;85.37
71173;DHT22;58875;51.996;4.504;2022-12-05T17:33:12;7.32;85.35
71173;DHT22;58875;51.996;4.504;2022-12-05T17:35:38;7.36;85.33
71173;DHT22;58875;51.996;4.504;2022-12-05T17:38:04;7.35;85.13
71173;DHT22;58875;51.996;4.504;2022-12-05T17:40:31;7.34;85.26
71173;DHT22;58875;51.996;4.504;2022-12-05T17:42:56;7.32;85.35
71173;DHT22;58875;51.996;4.504;2022-12-05T17:45:22;7.32;85.36
71173;DHT22;58875;51.996;4.504;2022-12-05T17:47:48;7.27;85.28
71173;DHT22;58875;51.996;4.504;2022-12-05T17:50:17;7.28;85.38
71173;DHT22;58875;51.996;4.504;2022-12-05T17:52:47;7.32;85.30
71173;DHT22;58875;51.996;4.504;2022-12-05T17:55:23;7.32;85.29
71173;DHT22;58875;51.996;4.504;2022-12-05T17:57:49;7.34;85.20
71173;DHT22;58875;51.996;4.504;2022-12-05T18:00:16;7.35;85.12
71173;DHT22;58875;51.996;4.504;2022-12-05T18:02:43;7.35;85.07
71173;DHT22;58875;51.996;4.504;2022-12-05T18:05:10;7.34;85.10
71173;DHT22;58875;51.996;4.504;2022-12-05T18:07:38;7.32;85.19
71173;DHT22;58875;51.996;4.504;2022-12-05T18:10:06;7.34;85.13
71173;DHT22;58875;51.996;4.504;2022-12-05T18:12:32;7.35;85.06
71173;DHT22;58875;51.996;4.504;2022-12-05T18:14:58;7.42;85.08
71173;DHT22;58875;51.996;4.504;2022-12-05T18:17:26;7.44;85.00
71173;DHT22;58875;51.996;4.504;2022-12-05T18:19:53;7.47;84.80
71173;DHT22;58875;51.996;4.504;2022-12-05T18:22:26;7.44;84.79
71173;DHT22;58875;51.996;4.504;2022-12-05T18:24:53;7.42;84.74
71173;DHT22;58875;51.996;4.504;2022-12-05T18:27:19;7.41;84.76
71173;DHT22;58875;51.996;4.504;2022-12-05T18:29:50;7.38;84.96
71173;DHT22;58875;51.996;4.504;2022-12-05T18:32:17;7.47;85.02
71173;DHT22;58875;51.996;4.504;2022-12-05T18:34:43;7.47;85.03
71173;DHT22;58875;51.996;4.504;2022-12-05T18:37:09;7.44;85.03
71173;DHT22;58875;51.996;4.504;2022-12-05T18:39:38;7.48;85.03
71173;DHT22;58875;51.996;4.504;2022-12-05T18:42:04;7.55;84.89
71173;DHT22;58875;51.996;4.504;2022-12-05T18:44:30;7.55;84.82
71173;DHT22;58875;51.996;4.504;2022-12-05T18:46:56;7.59;84.77
71173;DHT22;58875;51.996;4.504;2022-12-05T18:49:22;7.51;84.65
71173;DHT22;58875;51.996;4.504;2022-12-05T18:51:48;7.51;84.77
71173;DHT22;58875;51.996;4.504;2022-12-05T18:54:14;7.52;84.83
71173;DHT22;58875;51.996;4.504;2022-12-05T18:56:39;7.55;84.59
71173;DHT22;58875;51.996;4.504;2022-12-05T18:59:09;7.58;84.39
71173;DHT22;58875;51.996;4.504;2022-12-05T19:01:37;7.51;84.42
71173;DHT22;58875;51.996;4.504;2022-12-05T19:04:05;7.41;84.63
71173;DHT22;58875;51.996;4.504;2022-12-05T19:06:33;7.36;84.93
71173;DHT22;58875;51.996;4.504;2022-12-05T19:09:04;7.42;84.95
71173;DHT22;58875;51.996;4.504;2022-12-05T19:11:30;7.42;84.84
71173;DHT22;58875;51.996;4.504;2022-12-05T19:13:58;7.38;84.73
71173;DHT22;58875;51.996;4.504;2022-12-05T19:16:25;7.40;84.84
71173;DHT22;58875;51.996;4.504;2022-12-05T19:18:57;7.42;84.78
71173;DHT22;58875;51.996;4.504;2022-12-05T19:21:24;7.41;84.66
71173;DHT22;58875;51.996;4.504;2022-12-05T19:23:51;7.42;84.50
71173;DHT22;58875;51.996;4.504;2022-12-05T19:26:16;7.45;84.51
71173;DHT22;58875;51.996;4.504;2022-12-05T19:28:42;7.45;84.40
71173;DHT22;58875;51.996;4.504;2022-12-05T19:31:11;7.47;84.37
71173;DHT22;58875;51.996;4.504;2022-12-05T19:33:43;7.54;83.99
71173;DHT22;58875;51.996;4.504;2022-12-05T19:36:32;7.56;83.96